CheckWX is a tool to help pilots better visualize weather data.  It is not intended as a substitute for an official pre-flight weather briefing.

17:56:45 UTC

KPSF TAF
Pittsfield Municipal Airport
Pittsfield, Massachusetts, USA
KPSF 171726Z 1718/1818 28020G30KT P6SM -SHRA OVC015 FM172200 29014G24KT P6SM VCSH OVC025 FM180600 29012KT P6SM OVC030 FM181500 30012G18KT P6SM BKN035

Oct-17@
18:00 UTC

Oct-17 @ 18:00 UTC

Oct-17@
22:00 UTC

Oct-17 @ 22:00 UTC

KPSF 171726Z 1718/1818 28020G30KT P6SM -SHRA OVC015
Wind
  • 280° at 20 KTS
  • {Gusting to 30 KTS
Conditions
Light Rain
Cloud Levels
  • Overcast at 1,500' AGL

Oct-17@
22:00 UTC

Oct-17 @ 22:00 UTC

Oct-18@
06:00 UTC

Oct-18 @ 06:00 UTC

FM172200 29014G24KT P6SM VCSH OVC025

From

From Standard forecast or significant change

Wind
  • 290° at 14 KTS
  • {Gusting to 24 KTS
Cloud Levels
  • Overcast at 2,500' AGL

Oct-18@
06:00 UTC

Oct-18 @ 06:00 UTC

Oct-18@
15:00 UTC

Oct-18 @ 15:00 UTC

FM180600 29012KT P6SM OVC030

From

From Standard forecast or significant change

Wind
  • 290° at 12 KTS
Cloud Levels
  • Overcast at 3,000' AGL

Oct-18@
15:00 UTC

Oct-18 @ 15:00 UTC

Oct-18@
18:00 UTC

Oct-18 @ 18:00 UTC

FM181500 30012G18KT P6SM BKN035

From

From Standard forecast or significant change

Wind
  • 300° at 12 KTS
  • {Gusting to 18 KTS
Cloud Levels
  • Broken at 3,500' AGL